« Back
NWS Peachtree City, Ga » Text Product » CSG Terminal Aerodrome Forecast


Printer-friendly Version
Current Version              Previous Versions:   1  2  3  4  5  6  7  8  9  

Terminal Aerodrome Forecast

318
FTUS42 KFFC 061127
TAFCSG
TAF
KCSG 061127Z 0612/0712 01007KT P6SM BKN015
     FM061400 01007KT P6SM SCT025
     FM070000 36004KT P6SM SKC=

USA.gov is the U.S. government's official web portal to all federal, state and local government web resources and services.